sensor_id;sensor_type;location;lat;lon;timestamp;P1;durP1;ratioP1;P2;durP2;ratioP2
26806;SDS011;14380;49.910;6.792;2023-05-07T00:01:18;2.17;;;1.30;;
26806;SDS011;14380;49.910;6.792;2023-05-07T00:03:45;1.80;;;1.30;;
26806;SDS011;14380;49.910;6.792;2023-05-07T00:06:11;4.40;;;1.40;;
26806;SDS011;14380;49.910;6.792;2023-05-07T00:08:39;2.22;;;1.40;;
26806;SDS011;14380;49.910;6.792;2023-05-07T00:11:07;4.00;;;1.40;;
26806;SDS011;14380;49.910;6.792;2023-05-07T00:13:34;1.85;;;1.40;;
26806;SDS011;14380;49.910;6.792;2023-05-07T00:16:01;5.60;;;1.55;;
26806;SDS011;14380;49.910;6.792;2023-05-07T00:18:27;5.45;;;1.67;;
26806;SDS011;14380;49.910;6.792;2023-05-07T00:20:54;3.63;;;1.65;;
26806;SDS011;14380;49.910;6.792;2023-05-07T00:23:21;1.77;;;1.30;;
26806;SDS011;14380;49.910;6.792;2023-05-07T00:25:48;2.55;;;1.67;;
26806;SDS011;14380;49.910;6.792;2023-05-07T00:28:16;1.90;;;1.48;;
26806;SDS011;14380;49.910;6.792;2023-05-07T00:30:43;5.38;;;1.73;;
26806;SDS011;14380;49.910;6.792;2023-05-07T00:33:09;2.58;;;1.73;;
26806;SDS011;14380;49.910;6.792;2023-05-07T00:35:36;4.57;;;2.17;;
26806;SDS011;14380;49.910;6.792;2023-05-07T00:38:03;2.88;;;1.70;;
26806;SDS011;14380;49.910;6.792;2023-05-07T00:40:30;1.48;;;1.25;;
26806;SDS011;14380;49.910;6.792;2023-05-07T00:42:56;3.20;;;1.55;;
26806;SDS011;14380;49.910;6.792;2023-05-07T00:45:26;2.90;;;1.42;;
26806;SDS011;14380;49.910;6.792;2023-05-07T00:47:54;2.53;;;1.35;;
26806;SDS011;14380;49.910;6.792;2023-05-07T00:50:21;2.10;;;1.38;;
26806;SDS011;14380;49.910;6.792;2023-05-07T00:52:48;4.22;;;1.75;;
26806;SDS011;14380;49.910;6.792;2023-05-07T00:55:15;2.70;;;1.50;;
26806;SDS011;14380;49.910;6.792;2023-05-07T00:57:42;2.42;;;1.50;;
26806;SDS011;14380;49.910;6.792;2023-05-07T01:00:10;3.20;;;1.52;;
26806;SDS011;14380;49.910;6.792;2023-05-07T01:02:38;2.05;;;1.10;;
26806;SDS011;14380;49.910;6.792;2023-05-07T01:05:05;2.65;;;1.30;;
26806;SDS011;14380;49.910;6.792;2023-05-07T01:07:34;5.07;;;1.70;;
26806;SDS011;14380;49.910;6.792;2023-05-07T01:10:03;2.38;;;1.42;;
26806;SDS011;14380;49.910;6.792;2023-05-07T01:12:32;3.97;;;1.60;;
26806;SDS011;14380;49.910;6.792;2023-05-07T01:14:59;5.15;;;1.50;;
26806;SDS011;14380;49.910;6.792;2023-05-07T01:17:26;2.05;;;1.27;;
26806;SDS011;14380;49.910;6.792;2023-05-07T01:19:55;2.67;;;1.20;;
26806;SDS011;14380;49.910;6.792;2023-05-07T01:22:29;3.13;;;1.10;;
26806;SDS011;14380;49.910;6.792;2023-05-07T01:24:57;4.10;;;1.23;;
26806;SDS011;14380;49.910;6.792;2023-05-07T01:27:24;2.25;;;1.50;;
26806;SDS011;14380;49.910;6.792;2023-05-07T01:29:51;3.22;;;1.40;;
26806;SDS011;14380;49.910;6.792;2023-05-07T01:32:18;3.05;;;1.10;;
26806;SDS011;14380;49.910;6.792;2023-05-07T01:34:49;1.55;;;1.30;;
26806;SDS011;14380;49.910;6.792;2023-05-07T01:37:17;2.25;;;1.20;;
26806;SDS011;14380;49.910;6.792;2023-05-07T01:39:45;2.65;;;1.55;;
26806;SDS011;14380;49.910;6.792;2023-05-07T01:42:12;3.38;;;1.30;;
26806;SDS011;14380;49.910;6.792;2023-05-07T01:44:39;2.08;;;1.17;;
26806;SDS011;14380;49.910;6.792;2023-05-07T01:47:05;4.05;;;1.70;;
26806;SDS011;14380;49.910;6.792;2023-05-07T01:49:32;4.43;;;1.70;;
26806;SDS011;14380;49.910;6.792;2023-05-07T01:51:59;3.97;;;1.60;;
26806;SDS011;14380;49.910;6.792;2023-05-07T01:54:26;2.65;;;1.77;;
26806;SDS011;14380;49.910;6.792;2023-05-07T01:56:55;2.05;;;1.60;;
26806;SDS011;14380;49.910;6.792;2023-05-07T01:59:23;5.90;;;1.55;;
26806;SDS011;14380;49.910;6.792;2023-05-07T02:01:50;3.15;;;1.52;;
26806;SDS011;14380;49.910;6.792;2023-05-07T02:04:16;2.00;;;1.48;;
26806;SDS011;14380;49.910;6.792;2023-05-07T02:06:43;3.65;;;1.60;;
26806;SDS011;14380;49.910;6.792;2023-05-07T02:09:10;1.77;;;1.20;;
26806;SDS011;14380;49.910;6.792;2023-05-07T02:11:37;5.55;;;1.38;;
26806;SDS011;14380;49.910;6.792;2023-05-07T02:14:05;2.80;;;1.63;;
26806;SDS011;14380;49.910;6.792;2023-05-07T02:16:31;2.10;;;1.23;;
26806;SDS011;14380;49.910;6.792;2023-05-07T02:18:58;1.67;;;1.50;;
26806;SDS011;14380;49.910;6.792;2023-05-07T02:21:25;3.00;;;1.65;;
26806;SDS011;14380;49.910;6.792;2023-05-07T02:23:51;3.38;;;1.20;;
26806;SDS011;14380;49.910;6.792;2023-05-07T02:26:18;6.50;;;1.60;;
26806;SDS011;14380;49.910;6.792;2023-05-07T02:28:46;4.03;;;1.48;;
26806;SDS011;14380;49.910;6.792;2023-05-07T02:31:15;1.83;;;1.30;;
26806;SDS011;14380;49.910;6.792;2023-05-07T02:33:41;4.80;;;1.38;;
26806;SDS011;14380;49.910;6.792;2023-05-07T02:36:08;4.35;;;1.92;;
26806;SDS011;14380;49.910;6.792;2023-05-07T02:38:35;2.03;;;1.35;;
26806;SDS011;14380;49.910;6.792;2023-05-07T02:41:04;3.08;;;1.42;;
26806;SDS011;14380;49.910;6.792;2023-05-07T02:43:30;2.85;;;1.77;;
26806;SDS011;14380;49.910;6.792;2023-05-07T02:46:01;2.92;;;1.73;;
26806;SDS011;14380;49.910;6.792;2023-05-07T02:48:30;2.38;;;1.65;;
26806;SDS011;14380;49.910;6.792;2023-05-07T02:50:57;1.73;;;1.50;;
26806;SDS011;14380;49.910;6.792;2023-05-07T02:53:24;2.45;;;1.60;;
26806;SDS011;14380;49.910;6.792;2023-05-07T02:55:51;5.15;;;1.50;;
26806;SDS011;14380;49.910;6.792;2023-05-07T02:58:19;5.25;;;2.03;;
26806;SDS011;14380;49.910;6.792;2023-05-07T03:00:45;3.15;;;1.70;;
26806;SDS011;14380;49.910;6.792;2023-05-07T03:03:12;3.28;;;1.50;;
26806;SDS011;14380;49.910;6.792;2023-05-07T03:05:40;1.73;;;1.40;;
26806;SDS011;14380;49.910;6.792;2023-05-07T03:11:27;4.50;;;1.80;;
26806;SDS011;14380;49.910;6.792;2023-05-07T03:13:54;3.42;;;1.60;;
26806;SDS011;14380;49.910;6.792;2023-05-07T03:16:23;2.58;;;1.80;;
26806;SDS011;14380;49.910;6.792;2023-05-07T03:18:50;2.00;;;1.80;;
26806;SDS011;14380;49.910;6.792;2023-05-07T03:21:18;3.00;;;1.83;;
26806;SDS011;14380;49.910;6.792;2023-05-07T03:23:45;3.55;;;1.30;;
26806;SDS011;14380;49.910;6.792;2023-05-07T03:26:11;3.17;;;1.77;;
26806;SDS011;14380;49.910;6.792;2023-05-07T03:28:38;3.05;;;1.50;;
26806;SDS011;14380;49.910;6.792;2023-05-07T03:31:05;3.60;;;1.95;;
26806;SDS011;14380;49.910;6.792;2023-05-07T03:33:32;2.72;;;1.70;;
26806;SDS011;14380;49.910;6.792;2023-05-07T03:36:00;2.63;;;1.75;;
26806;SDS011;14380;49.910;6.792;2023-05-07T03:38:28;3.92;;;1.95;;
26806;SDS011;14380;49.910;6.792;2023-05-07T03:40:55;3.03;;;1.85;;
26806;SDS011;14380;49.910;6.792;2023-05-07T03:43:21;3.45;;;2.13;;
26806;SDS011;14380;49.910;6.792;2023-05-07T03:45:48;4.53;;;1.80;;
26806;SDS011;14380;49.910;6.792;2023-05-07T03:48:15;2.90;;;1.80;;
26806;SDS011;14380;49.910;6.792;2023-05-07T03:50:41;3.47;;;2.00;;
26806;SDS011;14380;49.910;6.792;2023-05-07T03:53:08;4.30;;;2.10;;
26806;SDS011;14380;49.910;6.792;2023-05-07T03:55:36;6.78;;;2.40;;
26806;SDS011;14380;49.910;6.792;2023-05-07T03:58:03;3.60;;;1.90;;
26806;SDS011;14380;49.910;6.792;2023-05-07T04:00:30;3.00;;;2.33;;
26806;SDS011;14380;49.910;6.792;2023-05-07T04:02:58;2.33;;;2.05;;
26806;SDS011;14380;49.910;6.792;2023-05-07T04:05:25;3.70;;;2.15;;
26806;SDS011;14380;49.910;6.792;2023-05-07T04:07:53;2.97;;;1.83;;
26806;SDS011;14380;49.910;6.792;2023-05-07T04:10:26;5.57;;;2.15;;
26806;SDS011;14380;49.910;6.792;2023-05-07T04:13:01;3.63;;;2.10;;
26806;SDS011;14380;49.910;6.792;2023-05-07T04:15:36;2.55;;;1.80;;
26806;SDS011;14380;49.910;6.792;2023-05-07T04:18:09;2.30;;;1.90;;
26806;SDS011;14380;49.910;6.792;2023-05-07T04:20:40;3.80;;;1.80;;
26806;SDS011;14380;49.910;6.792;2023-05-07T04:23:07;4.45;;;2.03;;
26806;SDS011;14380;49.910;6.792;2023-05-07T04:25:34;2.17;;;1.80;;
26806;SDS011;14380;49.910;6.792;2023-05-07T04:28:02;2.15;;;1.80;;
26806;SDS011;14380;49.910;6.792;2023-05-07T04:30:29;3.40;;;2.20;;
26806;SDS011;14380;49.910;6.792;2023-05-07T04:32:56;4.07;;;1.90;;
26806;SDS011;14380;49.910;6.792;2023-05-07T04:35:23;2.80;;;1.88;;
26806;SDS011;14380;49.910;6.792;2023-05-07T04:37:50;2.38;;;2.10;;
26806;SDS011;14380;49.910;6.792;2023-05-07T04:40:17;4.35;;;2.00;;
26806;SDS011;14380;49.910;6.792;2023-05-07T04:42:43;2.22;;;1.95;;
26806;SDS011;14380;49.910;6.792;2023-05-07T04:45:12;2.58;;;1.60;;
26806;SDS011;14380;49.910;6.792;2023-05-07T04:47:38;3.97;;;2.00;;
26806;SDS011;14380;49.910;6.792;2023-05-07T04:50:06;2.80;;;1.70;;
26806;SDS011;14380;49.910;6.792;2023-05-07T04:52:34;1.83;;;1.60;;
26806;SDS011;14380;49.910;6.792;2023-05-07T04:55:00;1.80;;;1.70;;
26806;SDS011;14380;49.910;6.792;2023-05-07T04:57:27;4.72;;;2.30;;
26806;SDS011;14380;49.910;6.792;2023-05-07T04:59:54;2.35;;;2.10;;
26806;SDS011;14380;49.910;6.792;2023-05-07T05:02:22;3.80;;;2.00;;
26806;SDS011;14380;49.910;6.792;2023-05-07T05:04:49;4.60;;;2.20;;
26806;SDS011;14380;49.910;6.792;2023-05-07T05:07:16;2.38;;;1.88;;
26806;SDS011;14380;49.910;6.792;2023-05-07T05:09:43;4.78;;;2.10;;
26806;SDS011;14380;49.910;6.792;2023-05-07T05:12:10;2.30;;;1.90;;
26806;SDS011;14380;49.910;6.792;2023-05-07T05:14:36;5.18;;;2.35;;
26806;SDS011;14380;49.910;6.792;2023-05-07T05:17:03;2.00;;;1.75;;
26806;SDS011;14380;49.910;6.792;2023-05-07T05:19:32;2.20;;;1.80;;
26806;SDS011;14380;49.910;6.792;2023-05-07T05:21:58;2.38;;;1.70;;
26806;SDS011;14380;49.910;6.792;2023-05-07T05:24:26;4.10;;;2.22;;
26806;SDS011;14380;49.910;6.792;2023-05-07T05:26:52;2.25;;;1.85;;
26806;SDS011;14380;49.910;6.792;2023-05-07T05:29:21;4.32;;;1.60;;
26806;SDS011;14380;49.910;6.792;2023-05-07T05:31:47;3.58;;;1.90;;
26806;SDS011;14380;49.910;6.792;2023-05-07T05:34:14;2.15;;;1.65;;
26806;SDS011;14380;49.910;6.792;2023-05-07T05:36:43;3.45;;;2.10;;
26806;SDS011;14380;49.910;6.792;2023-05-07T05:39:10;4.07;;;1.88;;
26806;SDS011;14380;49.910;6.792;2023-05-07T05:41:37;3.75;;;1.80;;
26806;SDS011;14380;49.910;6.792;2023-05-07T05:44:04;3.33;;;1.52;;
26806;SDS011;14380;49.910;6.792;2023-05-07T05:46:31;2.88;;;1.70;;
26806;SDS011;14380;49.910;6.792;2023-05-07T05:48:58;2.08;;;1.50;;
26806;SDS011;14380;49.910;6.792;2023-05-07T05:51:25;4.32;;;1.77;;
26806;SDS011;14380;49.910;6.792;2023-05-07T05:53:53;4.13;;;1.58;;
26806;SDS011;14380;49.910;6.792;2023-05-07T05:56:22;7.20;;;2.20;;
26806;SDS011;14380;49.910;6.792;2023-05-07T05:58:49;2.65;;;1.60;;
26806;SDS011;14380;49.910;6.792;2023-05-07T06:01:16;8.75;;;1.80;;
26806;SDS011;14380;49.910;6.792;2023-05-07T06:03:43;2.72;;;1.33;;
26806;SDS011;14380;49.910;6.792;2023-05-07T06:06:11;1.80;;;1.50;;
26806;SDS011;14380;49.910;6.792;2023-05-07T06:08:39;1.88;;;1.67;;
26806;SDS011;14380;49.910;6.792;2023-05-07T06:11:07;3.88;;;1.77;;
26806;SDS011;14380;49.910;6.792;2023-05-07T06:13:34;3.00;;;2.03;;
26806;SDS011;14380;49.910;6.792;2023-05-07T06:16:01;1.70;;;1.60;;
26806;SDS011;14380;49.910;6.792;2023-05-07T06:18:27;5.35;;;1.90;;
26806;SDS011;14380;49.910;6.792;2023-05-07T06:20:54;2.13;;;1.88;;
26806;SDS011;14380;49.910;6.792;2023-05-07T06:23:21;2.88;;;1.60;;
26806;SDS011;14380;49.910;6.792;2023-05-07T06:25:48;2.58;;;1.90;;
26806;SDS011;14380;49.910;6.792;2023-05-07T06:28:17;3.42;;;1.80;;
26806;SDS011;14380;49.910;6.792;2023-05-07T06:30:43;3.22;;;2.15;;
26806;SDS011;14380;49.910;6.792;2023-05-07T06:33:10;4.22;;;2.22;;
26806;SDS011;14380;49.910;6.792;2023-05-07T06:35:37;2.90;;;1.98;;
26806;SDS011;14380;49.910;6.792;2023-05-07T06:38:03;3.60;;;2.10;;
26806;SDS011;14380;49.910;6.792;2023-05-07T06:40:30;5.38;;;2.33;;
26806;SDS011;14380;49.910;6.792;2023-05-07T06:42:57;4.03;;;1.88;;
26806;SDS011;14380;49.910;6.792;2023-05-07T06:45:25;3.70;;;1.90;;
26806;SDS011;14380;49.910;6.792;2023-05-07T06:47:52;3.17;;;2.10;;
26806;SDS011;14380;49.910;6.792;2023-05-07T06:50:18;3.40;;;1.90;;
26806;SDS011;14380;49.910;6.792;2023-05-07T06:52:46;2.63;;;2.28;;
26806;SDS011;14380;49.910;6.792;2023-05-07T06:55:12;3.45;;;2.22;;
26806;SDS011;14380;49.910;6.792;2023-05-07T06:57:39;2.78;;;2.10;;
26806;SDS011;14380;49.910;6.792;2023-05-07T07:00:07;4.53;;;2.08;;
26806;SDS011;14380;49.910;6.792;2023-05-07T07:02:36;2.90;;;1.90;;
26806;SDS011;14380;49.910;6.792;2023-05-07T07:05:03;2.92;;;1.90;;
26806;SDS011;14380;49.910;6.792;2023-05-07T07:07:30;2.05;;;1.55;;
26806;SDS011;14380;49.910;6.792;2023-05-07T07:09:57;2.28;;;1.70;;
26806;SDS011;14380;49.910;6.792;2023-05-07T07:12:24;2.10;;;1.40;;
26806;SDS011;14380;49.910;6.792;2023-05-07T07:14:51;3.97;;;1.48;;
26806;SDS011;14380;49.910;6.792;2023-05-07T07:17:18;4.38;;;1.67;;
26806;SDS011;14380;49.910;6.792;2023-05-07T07:19:46;3.58;;;1.30;;
26806;SDS011;14380;49.910;6.792;2023-05-07T07:22:13;3.83;;;1.67;;
26806;SDS011;14380;49.910;6.792;2023-05-07T07:24:40;3.47;;;1.65;;
26806;SDS011;14380;49.910;6.792;2023-05-07T07:27:06;2.47;;;1.17;;
26806;SDS011;14380;49.910;6.792;2023-05-07T07:29:33;3.22;;;1.20;;
26806;SDS011;14380;49.910;6.792;2023-05-07T07:32:00;3.20;;;1.20;;
26806;SDS011;14380;49.910;6.792;2023-05-07T07:34:27;1.83;;;1.50;;
26806;SDS011;14380;49.910;6.792;2023-05-07T07:36:55;3.05;;;1.10;;
26806;SDS011;14380;49.910;6.792;2023-05-07T07:39:22;3.47;;;1.50;;
26806;SDS011;14380;49.910;6.792;2023-05-07T07:41:49;3.17;;;1.30;;
26806;SDS011;14380;49.910;6.792;2023-05-07T07:44:16;4.25;;;1.23;;
26806;SDS011;14380;49.910;6.792;2023-05-07T07:46:42;3.42;;;1.27;;
26806;SDS011;14380;49.910;6.792;2023-05-07T07:49:09;3.58;;;1.30;;
26806;SDS011;14380;49.910;6.792;2023-05-07T07:51:36;2.05;;;1.23;;
26806;SDS011;14380;49.910;6.792;2023-05-07T07:54:04;2.25;;;1.20;;
26806;SDS011;14380;49.910;6.792;2023-05-07T07:56:31;3.13;;;1.77;;
26806;SDS011;14380;49.910;6.792;2023-05-07T07:58:59;2.13;;;1.30;;
26806;SDS011;14380;49.910;6.792;2023-05-07T08:01:25;4.95;;;1.20;;
26806;SDS011;14380;49.910;6.792;2023-05-07T08:03:52;2.83;;;1.75;;
26806;SDS011;14380;49.910;6.792;2023-05-07T08:06:19;3.13;;;1.40;;
26806;SDS011;14380;49.910;6.792;2023-05-07T08:08:46;2.95;;;1.58;;
26806;SDS011;14380;49.910;6.792;2023-05-07T08:11:15;2.47;;;1.15;;
26806;SDS011;14380;49.910;6.792;2023-05-07T08:13:41;2.47;;;1.33;;
26806;SDS011;14380;49.910;6.792;2023-05-07T08:16:09;4.38;;;1.70;;
26806;SDS011;14380;49.910;6.792;2023-05-07T08:18:36;4.13;;;1.60;;
26806;SDS011;14380;49.910;6.792;2023-05-07T08:21:02;2.60;;;1.30;;
26806;SDS011;14380;49.910;6.792;2023-05-07T08:23:29;3.47;;;1.63;;
26806;SDS011;14380;49.910;6.792;2023-05-07T08:25:56;2.60;;;1.48;;
26806;SDS011;14380;49.910;6.792;2023-05-07T08:28:25;1.70;;;1.50;;
26806;SDS011;14380;49.910;6.792;2023-05-07T08:30:52;2.35;;;1.45;;
26806;SDS011;14380;49.910;6.792;2023-05-07T08:33:21;3.17;;;1.33;;
26806;SDS011;14380;49.910;6.792;2023-05-07T08:35:48;2.00;;;1.13;;
26806;SDS011;14380;49.910;6.792;2023-05-07T08:38:14;2.33;;;1.38;;
26806;SDS011;14380;49.910;6.792;2023-05-07T08:40:41;4.15;;;1.88;;
26806;SDS011;14380;49.910;6.792;2023-05-07T08:43:08;2.85;;;1.80;;
26806;SDS011;14380;49.910;6.792;2023-05-07T08:45:40;2.35;;;1.35;;
26806;SDS011;14380;49.910;6.792;2023-05-07T08:48:08;2.45;;;1.40;;
26806;SDS011;14380;49.910;6.792;2023-05-07T08:50:40;3.22;;;1.67;;
26806;SDS011;14380;49.910;6.792;2023-05-07T08:53:07;2.80;;;1.50;;
26806;SDS011;14380;49.910;6.792;2023-05-07T08:55:34;2.67;;;1.55;;
26806;SDS011;14380;49.910;6.792;2023-05-07T08:58:02;2.47;;;1.23;;
26806;SDS011;14380;49.910;6.792;2023-05-07T09:00:28;2.72;;;1.50;;
26806;SDS011;14380;49.910;6.792;2023-05-07T09:02:56;9.43;;;1.45;;
26806;SDS011;14380;49.910;6.792;2023-05-07T09:05:23;3.15;;;1.50;;
26806;SDS011;14380;49.910;6.792;2023-05-07T09:07:49;3.05;;;1.55;;
26806;SDS011;14380;49.910;6.792;2023-05-07T09:10:17;2.25;;;1.10;;
26806;SDS011;14380;49.910;6.792;2023-05-07T09:12:45;1.80;;;1.40;;
26806;SDS011;14380;49.910;6.792;2023-05-07T09:15:13;2.05;;;1.23;;
26806;SDS011;14380;49.910;6.792;2023-05-07T09:17:39;3.83;;;1.30;;
26806;SDS011;14380;49.910;6.792;2023-05-07T09:20:09;2.58;;;1.02;;
26806;SDS011;14380;49.910;6.792;2023-05-07T09:22:36;1.98;;;1.00;;
26806;SDS011;14380;49.910;6.792;2023-05-07T09:25:03;4.22;;;1.60;;
26806;SDS011;14380;49.910;6.792;2023-05-07T09:27:31;1.88;;;1.10;;
26806;SDS011;14380;49.910;6.792;2023-05-07T09:29:57;1.45;;;0.90;;
26806;SDS011;14380;49.910;6.792;2023-05-07T09:32:24;2.38;;;1.30;;
26806;SDS011;14380;49.910;6.792;2023-05-07T09:34:52;2.85;;;1.35;;
26806;SDS011;14380;49.910;6.792;2023-05-07T09:37:20;2.30;;;1.00;;
26806;SDS011;14380;49.910;6.792;2023-05-07T09:39:48;4.85;;;1.27;;
26806;SDS011;14380;49.910;6.792;2023-05-07T09:42:16;1.48;;;1.00;;
26806;SDS011;14380;49.910;6.792;2023-05-07T09:44:49;2.42;;;1.10;;
26806;SDS011;14380;49.910;6.792;2023-05-07T09:47:18;1.23;;;0.98;;
26806;SDS011;14380;49.910;6.792;2023-05-07T09:49:47;1.80;;;1.30;;
26806;SDS011;14380;49.910;6.792;2023-05-07T09:52:14;3.83;;;1.25;;
26806;SDS011;14380;49.910;6.792;2023-05-07T09:54:43;2.88;;;1.20;;
26806;SDS011;14380;49.910;6.792;2023-05-07T09:57:13;2.35;;;1.35;;
26806;SDS011;14380;49.910;6.792;2023-05-07T09:59:41;2.88;;;1.08;;
26806;SDS011;14380;49.910;6.792;2023-05-07T10:02:09;1.73;;;1.13;;
26806;SDS011;14380;49.910;6.792;2023-05-07T10:04:36;3.97;;;1.25;;
26806;SDS011;14380;49.910;6.792;2023-05-07T10:07:03;2.58;;;1.30;;
26806;SDS011;14380;49.910;6.792;2023-05-07T10:09:31;5.25;;;1.10;;
26806;SDS011;14380;49.910;6.792;2023-05-07T10:12:01;3.88;;;1.20;;
26806;SDS011;14380;49.910;6.792;2023-05-07T10:14:28;4.18;;;1.40;;
26806;SDS011;14380;49.910;6.792;2023-05-07T10:16:55;1.63;;;1.20;;
26806;SDS011;14380;49.910;6.792;2023-05-07T10:19:23;2.72;;;1.15;;
26806;SDS011;14380;49.910;6.792;2023-05-07T10:21:54;2.25;;;1.10;;
26806;SDS011;14380;49.910;6.792;2023-05-07T10:24:24;3.30;;;1.02;;
26806;SDS011;14380;49.910;6.792;2023-05-07T10:26:52;3.83;;;1.40;;
26806;SDS011;14380;49.910;6.792;2023-05-07T10:29:25;3.53;;;2.05;;
26806;SDS011;14380;49.910;6.792;2023-05-07T10:32:04;1.70;;;1.20;;
26806;SDS011;14380;49.910;6.792;2023-05-07T10:34:40;2.13;;;1.27;;
26806;SDS011;14380;49.910;6.792;2023-05-07T10:37:10;2.53;;;1.20;;
26806;SDS011;14380;49.910;6.792;2023-05-07T10:39:38;2.10;;;1.30;;
26806;SDS011;14380;49.910;6.792;2023-05-07T10:42:08;2.03;;;1.10;;
26806;SDS011;14380;49.910;6.792;2023-05-07T10:44:37;4.05;;;1.13;;
26806;SDS011;14380;49.910;6.792;2023-05-07T10:47:06;1.60;;;1.02;;
26806;SDS011;14380;49.910;6.792;2023-05-07T10:49:34;3.75;;;1.35;;
26806;SDS011;14380;49.910;6.792;2023-05-07T10:52:11;2.03;;;1.00;;
26806;SDS011;14380;49.910;6.792;2023-05-07T10:54:43;1.80;;;0.90;;
26806;SDS011;14380;49.910;6.792;2023-05-07T11:00:02;3.20;;;1.40;;
26806;SDS011;14380;49.910;6.792;2023-05-07T11:05:31;2.97;;;1.27;;
26806;SDS011;14380;49.910;6.792;2023-05-07T11:07:58;1.52;;;1.00;;
26806;SDS011;14380;49.910;6.792;2023-05-07T11:13:14;4.00;;;1.30;;
26806;SDS011;14380;49.910;6.792;2023-05-07T11:15:43;6.28;;;1.25;;
26806;SDS011;14380;49.910;6.792;2023-05-07T11:18:12;2.42;;;1.05;;
26806;SDS011;14380;49.910;6.792;2023-05-07T11:20:56;6.05;;;0.98;;
26806;SDS011;14380;49.910;6.792;2023-05-07T11:26:24;2.22;;;1.08;;
26806;SDS011;14380;49.910;6.792;2023-05-07T11:28:51;1.88;;;0.77;;
26806;SDS011;14380;49.910;6.792;2023-05-07T11:31:23;1.77;;;0.90;;
26806;SDS011;14380;49.910;6.792;2023-05-07T11:33:51;1.90;;;0.93;;
26806;SDS011;14380;49.910;6.792;2023-05-07T11:36:20;2.20;;;0.90;;
26806;SDS011;14380;49.910;6.792;2023-05-07T11:38:48;1.70;;;1.00;;
26806;SDS011;14380;49.910;6.792;2023-05-07T11:41:15;2.03;;;0.98;;
26806;SDS011;14380;49.910;6.792;2023-05-07T11:43:54;2.63;;;1.10;;
26806;SDS011;14380;49.910;6.792;2023-05-07T11:46:28;3.60;;;1.05;;
26806;SDS011;14380;49.910;6.792;2023-05-07T11:48:55;1.40;;;0.98;;
26806;SDS011;14380;49.910;6.792;2023-05-07T11:51:23;2.88;;;1.08;;
26806;SDS011;14380;49.910;6.792;2023-05-07T11:53:53;3.45;;;1.20;;
26806;SDS011;14380;49.910;6.792;2023-05-07T11:56:23;3.13;;;1.10;;
26806;SDS011;14380;49.910;6.792;2023-05-07T11:58:49;3.53;;;1.10;;
26806;SDS011;14380;49.910;6.792;2023-05-07T12:01:17;1.05;;;0.95;;
26806;SDS011;14380;49.910;6.792;2023-05-07T12:03:46;1.67;;;1.10;;
26806;SDS011;14380;49.910;6.792;2023-05-07T12:06:13;1.45;;;1.00;;
26806;SDS011;14380;49.910;6.792;2023-05-07T12:08:41;2.88;;;0.82;;
26806;SDS011;14380;49.910;6.792;2023-05-07T12:11:09;2.90;;;1.33;;
26806;SDS011;14380;49.910;6.792;2023-05-07T12:13:42;1.88;;;0.90;;
26806;SDS011;14380;49.910;6.792;2023-05-07T12:16:10;2.58;;;0.98;;
26806;SDS011;14380;49.910;6.792;2023-05-07T12:18:37;2.30;;;0.90;;
26806;SDS011;14380;49.910;6.792;2023-05-07T12:21:06;1.70;;;0.93;;
26806;SDS011;14380;49.910;6.792;2023-05-07T12:23:34;2.15;;;0.90;;
26806;SDS011;14380;49.910;6.792;2023-05-07T12:26:02;2.22;;;0.90;;
26806;SDS011;14380;49.910;6.792;2023-05-07T12:28:29;2.45;;;1.05;;
26806;SDS011;14380;49.910;6.792;2023-05-07T12:30:57;3.50;;;1.00;;
26806;SDS011;14380;49.910;6.792;2023-05-07T12:33:25;4.30;;;0.90;;
26806;SDS011;14380;49.910;6.792;2023-05-07T12:35:53;2.58;;;0.75;;
26806;SDS011;14380;49.910;6.792;2023-05-07T12:38:22;2.95;;;1.00;;
26806;SDS011;14380;49.910;6.792;2023-05-07T12:40:50;2.67;;;0.95;;
26806;SDS011;14380;49.910;6.792;2023-05-07T12:43:21;3.33;;;0.90;;
26806;SDS011;14380;49.910;6.792;2023-05-07T12:45:53;2.35;;;1.13;;
26806;SDS011;14380;49.910;6.792;2023-05-07T12:48:21;1.85;;;1.13;;
26806;SDS011;14380;49.910;6.792;2023-05-07T12:50:52;1.60;;;0.80;;
26806;SDS011;14380;49.910;6.792;2023-05-07T12:53:20;1.20;;;0.70;;
26806;SDS011;14380;49.910;6.792;2023-05-07T12:55:51;2.08;;;1.00;;
26806;SDS011;14380;49.910;6.792;2023-05-07T12:58:18;2.55;;;1.00;;
26806;SDS011;14380;49.910;6.792;2023-05-07T13:00:47;3.50;;;1.08;;
26806;SDS011;14380;49.910;6.792;2023-05-07T13:03:20;1.25;;;0.80;;
26806;SDS011;14380;49.910;6.792;2023-05-07T13:05:49;2.08;;;1.10;;
26806;SDS011;14380;49.910;6.792;2023-05-07T13:08:24;2.20;;;0.90;;
26806;SDS011;14380;49.910;6.792;2023-05-07T13:10:51;1.17;;;0.80;;
26806;SDS011;14380;49.910;6.792;2023-05-07T13:13:18;3.92;;;1.10;;
26806;SDS011;14380;49.910;6.792;2023-05-07T13:15:45;3.60;;;0.73;;
26806;SDS011;14380;49.910;6.792;2023-05-07T13:18:12;2.25;;;1.00;;
26806;SDS011;14380;49.910;6.792;2023-05-07T13:20:38;1.67;;;0.80;;
26806;SDS011;14380;49.910;6.792;2023-05-07T13:23:05;1.27;;;1.00;;
26806;SDS011;14380;49.910;6.792;2023-05-07T13:25:34;1.08;;;0.80;;
26806;SDS011;14380;49.910;6.792;2023-05-07T13:28:00;2.40;;;0.70;;
26806;SDS011;14380;49.910;6.792;2023-05-07T13:30:27;2.80;;;1.00;;
26806;SDS011;14380;49.910;6.792;2023-05-07T13:32:55;2.17;;;1.10;;
26806;SDS011;14380;49.910;6.792;2023-05-07T13:35:22;1.25;;;0.88;;
26806;SDS011;14380;49.910;6.792;2023-05-07T13:37:49;3.58;;;1.00;;
26806;SDS011;14380;49.910;6.792;2023-05-07T13:40:17;1.13;;;0.80;;
26806;SDS011;14380;49.910;6.792;2023-05-07T13:42:45;1.65;;;0.90;;
26806;SDS011;14380;49.910;6.792;2023-05-07T13:45:11;2.63;;;0.98;;
26806;SDS011;14380;49.910;6.792;2023-05-07T13:47:39;2.08;;;0.90;;
26806;SDS011;14380;49.910;6.792;2023-05-07T13:50:06;1.05;;;0.88;;
26806;SDS011;14380;49.910;6.792;2023-05-07T13:52:34;1.48;;;0.80;;
26806;SDS011;14380;49.910;6.792;2023-05-07T13:55:01;1.30;;;0.77;;
26806;SDS011;14380;49.910;6.792;2023-05-07T13:57:28;1.40;;;0.80;;
26806;SDS011;14380;49.910;6.792;2023-05-07T13:59:56;2.67;;;0.93;;
26806;SDS011;14380;49.910;6.792;2023-05-07T14:02:22;4.25;;;0.73;;
26806;SDS011;14380;49.910;6.792;2023-05-07T14:04:49;1.75;;;0.60;;
26806;SDS011;14380;49.910;6.792;2023-05-07T14:07:16;3.38;;;1.00;;
26806;SDS011;14380;49.910;6.792;2023-05-07T14:09:42;1.98;;;1.00;;
26806;SDS011;14380;49.910;6.792;2023-05-07T14:12:10;1.98;;;0.82;;
26806;SDS011;14380;49.910;6.792;2023-05-07T14:14:37;2.03;;;0.95;;
26806;SDS011;14380;49.910;6.792;2023-05-07T14:17:05;1.20;;;0.60;;
26806;SDS011;14380;49.910;6.792;2023-05-07T14:19:34;2.15;;;0.70;;
26806;SDS011;14380;49.910;6.792;2023-05-07T14:22:01;2.58;;;0.70;;
26806;SDS011;14380;49.910;6.792;2023-05-07T14:24:27;0.85;;;0.50;;
26806;SDS011;14380;49.910;6.792;2023-05-07T14:26:54;1.23;;;0.60;;
26806;SDS011;14380;49.910;6.792;2023-05-07T14:29:21;0.90;;;0.70;;
26806;SDS011;14380;49.910;6.792;2023-05-07T14:31:48;1.23;;;0.70;;
26806;SDS011;14380;49.910;6.792;2023-05-07T14:34:16;1.38;;;0.60;;
26806;SDS011;14380;49.910;6.792;2023-05-07T14:36:43;1.85;;;0.60;;
26806;SDS011;14380;49.910;6.792;2023-05-07T14:39:10;1.30;;;0.75;;
26806;SDS011;14380;49.910;6.792;2023-05-07T14:41:37;2.35;;;0.80;;
26806;SDS011;14380;49.910;6.792;2023-05-07T14:44:03;0.90;;;0.70;;
26806;SDS011;14380;49.910;6.792;2023-05-07T14:46:30;1.30;;;0.80;;
26806;SDS011;14380;49.910;6.792;2023-05-07T14:48:57;2.22;;;0.82;;
26806;SDS011;14380;49.910;6.792;2023-05-07T14:51:25;2.05;;;0.80;;
26806;SDS011;14380;49.910;6.792;2023-05-07T14:53:55;3.13;;;0.77;;
26806;SDS011;14380;49.910;6.792;2023-05-07T14:56:21;1.95;;;0.80;;
26806;SDS011;14380;49.910;6.792;2023-05-07T14:58:48;2.35;;;1.23;;
26806;SDS011;14380;49.910;6.792;2023-05-07T15:01:15;2.17;;;0.82;;
26806;SDS011;14380;49.910;6.792;2023-05-07T15:03:42;1.95;;;1.00;;
26806;SDS011;14380;49.910;6.792;2023-05-07T15:06:10;2.35;;;0.93;;